sensor_id;sensor_type;location;lat;lon;timestamp;pressure;altitude;pressure_sealevel;temperature;humidity
76864;BME280;65834;52.364;9.754;2024-01-15T00:02:20;99071.25;;;3.59;79.62
76864;BME280;65834;52.364;9.754;2024-01-15T00:04:50;99079.31;;;3.51;80.00
76864;BME280;65834;52.364;9.754;2024-01-15T00:07:22;99077.69;;;3.50;80.07
76864;BME280;65834;52.364;9.754;2024-01-15T00:09:52;99080.00;;;3.53;79.79
76864;BME280;65834;52.364;9.754;2024-01-15T00:12:21;99073.19;;;3.50;80.21
76864;BME280;65834;52.364;9.754;2024-01-15T00:14:51;99067.09;;;3.56;79.80
76864;BME280;65834;52.364;9.754;2024-01-15T00:17:20;99071.25;;;3.59;79.07
76864;BME280;65834;52.364;9.754;2024-01-15T00:19:51;99068.47;;;3.52;79.85
76864;BME280;65834;52.364;9.754;2024-01-15T00:22:25;99072.97;;;3.52;80.10
76864;BME280;65834;52.364;9.754;2024-01-15T00:24:54;99068.09;;;3.55;79.89
76864;BME280;65834;52.364;9.754;2024-01-15T00:27:24;99075.97;;;3.57;78.87
76864;BME280;65834;52.364;9.754;2024-01-15T00:29:54;99067.38;;;3.61;78.80
76864;BME280;65834;52.364;9.754;2024-01-15T00:32:23;99070.53;;;3.65;78.35
76864;BME280;65834;52.364;9.754;2024-01-15T00:34:53;99067.50;;;3.68;77.76
76864;BME280;65834;52.364;9.754;2024-01-15T00:37:25;99068.03;;;3.63;78.35
76864;BME280;65834;52.364;9.754;2024-01-15T00:39:54;99064.34;;;3.64;78.85
76864;BME280;65834;52.364;9.754;2024-01-15T00:42:24;99050.16;;;3.64;78.73
76864;BME280;65834;52.364;9.754;2024-01-15T00:44:53;99044.69;;;3.57;78.42
76864;BME280;65834;52.364;9.754;2024-01-15T00:47:23;99041.53;;;3.54;78.33
76864;BME280;65834;52.364;9.754;2024-01-15T00:49:53;99038.22;;;3.52;78.04
76864;BME280;65834;52.364;9.754;2024-01-15T00:52:25;99037.22;;;3.53;77.75
76864;BME280;65834;52.364;9.754;2024-01-15T00:54:54;99036.94;;;3.48;77.71
76864;BME280;65834;52.364;9.754;2024-01-15T00:57:24;99040.16;;;3.43;77.97
76864;BME280;65834;52.364;9.754;2024-01-15T00:59:54;99040.06;;;3.51;78.02
76864;BME280;65834;52.364;9.754;2024-01-15T01:02:24;99032.53;;;3.55;78.11
76864;BME280;65834;52.364;9.754;2024-01-15T01:04:53;99015.66;;;3.54;77.81
76864;BME280;65834;52.364;9.754;2024-01-15T01:07:25;99033.44;;;3.47;78.03
76864;BME280;65834;52.364;9.754;2024-01-15T01:09:55;99034.56;;;3.53;77.96
76864;BME280;65834;52.364;9.754;2024-01-15T01:12:24;99024.88;;;3.52;77.70
76864;BME280;65834;52.364;9.754;2024-01-15T01:14:54;99035.75;;;3.50;77.43
76864;BME280;65834;52.364;9.754;2024-01-15T01:17:24;99035.28;;;3.47;77.67
76864;BME280;65834;52.364;9.754;2024-01-15T01:19:53;99033.34;;;3.41;77.53
76864;BME280;65834;52.364;9.754;2024-01-15T01:22:26;99029.19;;;3.38;77.29
76864;BME280;65834;52.364;9.754;2024-01-15T01:24:55;99028.53;;;3.36;77.67
76864;BME280;65834;52.364;9.754;2024-01-15T01:27:25;99020.34;;;3.38;77.24
76864;BME280;65834;52.364;9.754;2024-01-15T01:29:54;99018.88;;;3.35;77.14
76864;BME280;65834;52.364;9.754;2024-01-15T01:32:24;99012.03;;;3.33;77.25
76864;BME280;65834;52.364;9.754;2024-01-15T01:34:53;99021.22;;;3.30;77.00
76864;BME280;65834;52.364;9.754;2024-01-15T01:37:26;99017.19;;;3.34;76.59
76864;BME280;65834;52.364;9.754;2024-01-15T01:39:55;99004.38;;;3.29;76.51
76864;BME280;65834;52.364;9.754;2024-01-15T01:42:25;98998.22;;;3.29;76.99
76864;BME280;65834;52.364;9.754;2024-01-15T01:44:54;99004.31;;;3.38;76.64
76864;BME280;65834;52.364;9.754;2024-01-15T01:47:24;98997.84;;;3.32;76.55
76864;BME280;65834;52.364;9.754;2024-01-15T01:49:55;98995.34;;;3.31;76.20
76864;BME280;65834;52.364;9.754;2024-01-15T01:52:27;98993.63;;;3.38;75.94
76864;BME280;65834;52.364;9.754;2024-01-15T01:54:56;98977.03;;;3.42;75.50
76864;BME280;65834;52.364;9.754;2024-01-15T01:57:26;98988.38;;;3.44;75.07
76864;BME280;65834;52.364;9.754;2024-01-15T01:59:56;98991.41;;;3.41;74.65
76864;BME280;65834;52.364;9.754;2024-01-15T02:02:37;98991.84;;;3.45;74.00
76864;BME280;65834;52.364;9.754;2024-01-15T02:05:07;98995.56;;;3.44;73.83
76864;BME280;65834;52.364;9.754;2024-01-15T02:07:40;98993.25;;;3.41;74.99
76864;BME280;65834;52.364;9.754;2024-01-15T02:10:10;98986.16;;;3.48;74.61
76864;BME280;65834;52.364;9.754;2024-01-15T02:12:39;98984.88;;;3.44;74.54
76864;BME280;65834;52.364;9.754;2024-01-15T02:15:09;98979.75;;;3.57;74.50
76864;BME280;65834;52.364;9.754;2024-01-15T02:17:57;98979.53;;;3.58;73.90
76864;BME280;65834;52.364;9.754;2024-01-15T02:20:28;98975.19;;;3.57;74.26
76864;BME280;65834;52.364;9.754;2024-01-15T02:23:08;98977.34;;;3.62;73.33
76864;BME280;65834;52.364;9.754;2024-01-15T02:25:40;98976.69;;;3.60;73.29
76864;BME280;65834;52.364;9.754;2024-01-15T02:28:11;98969.47;;;3.60;73.43
76864;BME280;65834;52.364;9.754;2024-01-15T02:30:42;98979.81;;;3.63;72.98
76864;BME280;65834;52.364;9.754;2024-01-15T02:33:12;98973.19;;;3.59;73.05
76864;BME280;65834;52.364;9.754;2024-01-15T02:35:42;98974.09;;;3.52;73.71
76864;BME280;65834;52.364;9.754;2024-01-15T02:38:15;98976.75;;;3.52;74.11
76864;BME280;65834;52.364;9.754;2024-01-15T02:40:47;98976.13;;;3.64;73.62
76864;BME280;65834;52.364;9.754;2024-01-15T02:43:16;98968.56;;;3.68;73.19
76864;BME280;65834;52.364;9.754;2024-01-15T02:45:46;98971.78;;;3.63;73.14
76864;BME280;65834;52.364;9.754;2024-01-15T02:48:16;98987.47;;;3.66;72.76
76864;BME280;65834;52.364;9.754;2024-01-15T02:50:45;98981.47;;;3.64;72.70
76864;BME280;65834;52.364;9.754;2024-01-15T02:53:17;98969.13;;;3.63;72.77
76864;BME280;65834;52.364;9.754;2024-01-15T02:55:47;98964.97;;;3.61;72.78
76864;BME280;65834;52.364;9.754;2024-01-15T02:58:16;98966.28;;;3.65;72.96
76864;BME280;65834;52.364;9.754;2024-01-15T03:00:46;98970.63;;;3.66;72.36
76864;BME280;65834;52.364;9.754;2024-01-15T03:03:16;98968.56;;;3.68;72.37
76864;BME280;65834;52.364;9.754;2024-01-15T03:05:45;98949.66;;;3.69;72.20
76864;BME280;65834;52.364;9.754;2024-01-15T03:08:18;98951.16;;;3.72;72.16
76864;BME280;65834;52.364;9.754;2024-01-15T03:10:49;98956.03;;;3.68;72.26
76864;BME280;65834;52.364;9.754;2024-01-15T03:13:19;98957.69;;;3.69;71.84
76864;BME280;65834;52.364;9.754;2024-01-15T03:15:48;98961.56;;;3.67;72.13
76864;BME280;65834;52.364;9.754;2024-01-15T03:18:18;98962.41;;;3.67;72.25
76864;BME280;65834;52.364;9.754;2024-01-15T03:20:48;98971.06;;;3.69;71.70
76864;BME280;65834;52.364;9.754;2024-01-15T03:23:20;98957.03;;;3.67;72.23
76864;BME280;65834;52.364;9.754;2024-01-15T03:25:50;98960.72;;;3.66;71.86
76864;BME280;65834;52.364;9.754;2024-01-15T03:28:19;98970.97;;;3.63;72.20
76864;BME280;65834;52.364;9.754;2024-01-15T03:30:49;98961.56;;;3.67;72.30
76864;BME280;65834;52.364;9.754;2024-01-15T03:33:19;98965.28;;;3.66;72.29
76864;BME280;65834;52.364;9.754;2024-01-15T03:35:48;98957.41;;;3.64;72.51
76864;BME280;65834;52.364;9.754;2024-01-15T03:38:20;98953.06;;;3.63;72.68
76864;BME280;65834;52.364;9.754;2024-01-15T03:40:50;98962.59;;;3.66;72.94
76864;BME280;65834;52.364;9.754;2024-01-15T03:43:19;98970.25;;;3.69;72.96
76864;BME280;65834;52.364;9.754;2024-01-15T03:45:49;98972.19;;;3.75;73.08
76864;BME280;65834;52.364;9.754;2024-01-15T03:48:19;98969.50;;;3.75;72.85
76864;BME280;65834;52.364;9.754;2024-01-15T03:50:48;98979.38;;;3.74;72.94
76864;BME280;65834;52.364;9.754;2024-01-15T03:53:20;98981.22;;;3.74;72.97
76864;BME280;65834;52.364;9.754;2024-01-15T03:55:50;98996.03;;;3.76;72.58
76864;BME280;65834;52.364;9.754;2024-01-15T03:58:20;98984.72;;;3.74;72.76
76864;BME280;65834;52.364;9.754;2024-01-15T04:00:49;98973.66;;;3.77;72.28
76864;BME280;65834;52.364;9.754;2024-01-15T04:03:19;98982.69;;;3.76;72.00
76864;BME280;65834;52.364;9.754;2024-01-15T04:05:49;98978.16;;;3.77;72.09
76864;BME280;65834;52.364;9.754;2024-01-15T04:08:21;98983.88;;;3.74;72.38
76864;BME280;65834;52.364;9.754;2024-01-15T04:10:50;98960.44;;;3.76;71.89
76864;BME280;65834;52.364;9.754;2024-01-15T04:13:21;98967.38;;;3.70;72.79
76864;BME280;65834;52.364;9.754;2024-01-15T04:15:51;98968.47;;;3.76;72.40
76864;BME280;65834;52.364;9.754;2024-01-15T04:18:21;98962.94;;;3.77;72.57
76864;BME280;65834;52.364;9.754;2024-01-15T04:20:50;98961.75;;;3.80;72.18
76864;BME280;65834;52.364;9.754;2024-01-15T04:23:22;98969.31;;;3.76;71.75
76864;BME280;65834;52.364;9.754;2024-01-15T04:25:52;98969.88;;;3.72;72.11
76864;BME280;65834;52.364;9.754;2024-01-15T04:28:21;98968.38;;;3.69;72.62
76864;BME280;65834;52.364;9.754;2024-01-15T04:30:51;98966.06;;;3.66;72.41
76864;BME280;65834;52.364;9.754;2024-01-15T04:33:20;98970.97;;;3.63;73.16
76864;BME280;65834;52.364;9.754;2024-01-15T04:35:50;98970.25;;;3.69;72.96
76864;BME280;65834;52.364;9.754;2024-01-15T04:38:22;98958.72;;;3.68;72.98
76864;BME280;65834;52.364;9.754;2024-01-15T04:40:52;98963.59;;;3.65;73.46
76864;BME280;65834;52.364;9.754;2024-01-15T04:43:24;98973.94;;;3.68;73.33
76864;BME280;65834;52.364;9.754;2024-01-15T04:45:53;98966.91;;;3.67;73.28
76864;BME280;65834;52.364;9.754;2024-01-15T04:48:23;98970.03;;;3.70;73.37
76864;BME280;65834;52.364;9.754;2024-01-15T04:50:52;98979.75;;;3.71;73.65
76864;BME280;65834;52.364;9.754;2024-01-15T04:53:25;98969.50;;;3.75;73.21
76864;BME280;65834;52.364;9.754;2024-01-15T04:55:54;98964.53;;;3.72;73.11
76864;BME280;65834;52.364;9.754;2024-01-15T04:58:23;98960.44;;;3.76;73.01
76864;BME280;65834;52.364;9.754;2024-01-15T05:00:54;98971.50;;;3.73;73.50
76864;BME280;65834;52.364;9.754;2024-01-15T05:03:24;98957.31;;;3.72;73.46
76864;BME280;65834;52.364;9.754;2024-01-15T05:05:53;98963.78;;;3.78;74.23
76864;BME280;65834;52.364;9.754;2024-01-15T05:08:26;98959.81;;;3.74;74.95
76864;BME280;65834;52.364;9.754;2024-01-15T05:10:55;98950.31;;;3.71;75.42
76864;BME280;65834;52.364;9.754;2024-01-15T05:13:25;98966.16;;;3.73;75.40
76864;BME280;65834;52.364;9.754;2024-01-15T05:15:54;98950.69;;;3.68;75.57
76864;BME280;65834;52.364;9.754;2024-01-15T05:18:24;98953.53;;;3.67;75.85
76864;BME280;65834;52.364;9.754;2024-01-15T05:20:54;98949.03;;;3.67;75.76
76864;BME280;65834;52.364;9.754;2024-01-15T05:23:26;98945.53;;;3.67;75.63
76864;BME280;65834;52.364;9.754;2024-01-15T05:25:56;98938.53;;;3.66;75.54
76864;BME280;65834;52.364;9.754;2024-01-15T05:28:25;98943.50;;;3.69;75.43
76864;BME280;65834;52.364;9.754;2024-01-15T05:30:55;98952.06;;;3.64;75.06
76864;BME280;65834;52.364;9.754;2024-01-15T05:33:24;98943.59;;;3.61;75.46
76864;BME280;65834;52.364;9.754;2024-01-15T05:35:54;98945.44;;;3.60;75.26
76864;BME280;65834;52.364;9.754;2024-01-15T05:38:28;98948.09;;;3.60;75.24
76864;BME280;65834;52.364;9.754;2024-01-15T05:40:57;98948.66;;;3.56;75.52
76864;BME280;65834;52.364;9.754;2024-01-15T05:43:27;98954.28;;;3.61;75.22
76864;BME280;65834;52.364;9.754;2024-01-15T05:45:56;98929.13;;;3.55;75.32
76864;BME280;65834;52.364;9.754;2024-01-15T05:48:27;98935.03;;;3.65;74.48
76864;BME280;65834;52.364;9.754;2024-01-15T05:50:57;98942.22;;;3.65;75.08
76864;BME280;65834;52.364;9.754;2024-01-15T05:53:30;98940.84;;;3.69;74.96
76864;BME280;65834;52.364;9.754;2024-01-15T05:55:59;98935.13;;;3.72;74.75
76864;BME280;65834;52.364;9.754;2024-01-15T05:58:29;98935.75;;;3.74;74.53
76864;BME280;65834;52.364;9.754;2024-01-15T06:00:58;98938.69;;;3.64;74.97
76864;BME280;65834;52.364;9.754;2024-01-15T06:03:36;98933.00;;;3.67;74.59
76864;BME280;65834;52.364;9.754;2024-01-15T06:06:06;98955.22;;;3.68;74.76
76864;BME280;65834;52.364;9.754;2024-01-15T06:08:38;98951.06;;;3.65;75.30
76864;BME280;65834;52.364;9.754;2024-01-15T06:11:08;98946.34;;;3.67;75.40
76864;BME280;65834;52.364;9.754;2024-01-15T06:13:37;98943.03;;;3.65;75.62
76864;BME280;65834;52.364;9.754;2024-01-15T06:16:13;98945.34;;;3.68;75.65
76864;BME280;65834;52.364;9.754;2024-01-15T06:18:43;98945.97;;;3.70;75.53
76864;BME280;65834;52.364;9.754;2024-01-15T06:21:13;98945.53;;;3.67;76.36
76864;BME280;65834;52.364;9.754;2024-01-15T06:23:45;98939.91;;;3.62;76.15
76864;BME280;65834;52.364;9.754;2024-01-15T06:26:15;98942.75;;;3.60;76.61
76864;BME280;65834;52.364;9.754;2024-01-15T06:28:44;98951.44;;;3.62;76.63
76864;BME280;65834;52.364;9.754;2024-01-15T06:31:14;98928.22;;;3.63;76.44
76864;BME280;65834;52.364;9.754;2024-01-15T06:33:44;98948.19;;;3.67;76.44
76864;BME280;65834;52.364;9.754;2024-01-15T06:36:14;98948.19;;;3.67;76.23
76864;BME280;65834;52.364;9.754;2024-01-15T06:38:47;98958.63;;;3.62;76.02
76864;BME280;65834;52.364;9.754;2024-01-15T06:41:16;98959.53;;;3.54;76.29
76864;BME280;65834;52.364;9.754;2024-01-15T06:43:46;98953.06;;;3.49;76.68
76864;BME280;65834;52.364;9.754;2024-01-15T06:46:19;98949.88;;;3.53;76.58
76864;BME280;65834;52.364;9.754;2024-01-15T06:48:49;98945.44;;;3.60;76.43
76864;BME280;65834;52.364;9.754;2024-01-15T06:51:19;98956.13;;;3.60;76.03
76864;BME280;65834;52.364;9.754;2024-01-15T06:53:51;98948.94;;;3.61;75.67
76864;BME280;65834;52.364;9.754;2024-01-15T06:56:21;98959.81;;;3.59;75.11
76864;BME280;65834;52.364;9.754;2024-01-15T06:58:50;98950.41;;;3.63;75.81
76864;BME280;65834;52.364;9.754;2024-01-15T07:01:20;98957.25;;;3.66;75.66
76864;BME280;65834;52.364;9.754;2024-01-15T07:03:49;98962.59;;;3.66;75.12
76864;BME280;65834;52.364;9.754;2024-01-15T07:06:19;98954.75;;;3.64;75.35
76864;BME280;65834;52.364;9.754;2024-01-15T07:08:51;98959.72;;;3.67;74.83
76864;BME280;65834;52.364;9.754;2024-01-15T07:11:21;98957.31;;;3.72;74.69
76864;BME280;65834;52.364;9.754;2024-01-15T07:13:51;98959.25;;;3.64;74.43
76864;BME280;65834;52.364;9.754;2024-01-15T07:16:20;98970.41;;;3.67;75.25
76864;BME280;65834;52.364;9.754;2024-01-15T07:19:03;98965.44;;;3.64;75.42
76864;BME280;65834;52.364;9.754;2024-01-15T07:21:33;98972.25;;;3.67;75.64
76864;BME280;65834;52.364;9.754;2024-01-15T07:24:05;98977.97;;;3.64;76.28
76864;BME280;65834;52.364;9.754;2024-01-15T07:26:35;98972.44;;;3.65;76.75
76864;BME280;65834;52.364;9.754;2024-01-15T07:29:04;98967.84;;;3.59;77.27
76864;BME280;65834;52.364;9.754;2024-01-15T07:31:35;98979.38;;;3.60;77.82
76864;BME280;65834;52.364;9.754;2024-01-15T07:34:05;98969.69;;;3.59;77.55
76864;BME280;65834;52.364;9.754;2024-01-15T07:36:34;98970.88;;;3.56;77.72
76864;BME280;65834;52.364;9.754;2024-01-15T07:39:06;98973.72;;;3.55;78.06
76864;BME280;65834;52.364;9.754;2024-01-15T07:41:38;98975.56;;;3.54;77.94
76864;BME280;65834;52.364;9.754;2024-01-15T07:44:07;98980.16;;;3.60;77.98
76864;BME280;65834;52.364;9.754;2024-01-15T07:46:37;98982.41;;;3.57;77.83
76864;BME280;65834;52.364;9.754;2024-01-15T07:49:06;98971.88;;;3.55;77.80
76864;BME280;65834;52.364;9.754;2024-01-15T07:51:36;98976.75;;;3.52;78.68
76864;BME280;65834;52.364;9.754;2024-01-15T07:54:09;98980.75;;;3.56;78.67
76864;BME280;65834;52.364;9.754;2024-01-15T07:56:53;98976.03;;;3.58;79.34
76864;BME280;65834;52.364;9.754;2024-01-15T07:59:24;98981.09;;;3.53;79.11
76864;BME280;65834;52.364;9.754;2024-01-15T08:01:53;98974.72;;;3.54;79.20
76864;BME280;65834;52.364;9.754;2024-01-15T08:04:23;98982.75;;;3.54;79.00
76864;BME280;65834;52.364;9.754;2024-01-15T08:06:53;98989.50;;;3.50;79.20
76864;BME280;65834;52.364;9.754;2024-01-15T08:09:26;98985.25;;;3.55;79.04
76864;BME280;65834;52.364;9.754;2024-01-15T08:11:56;98989.75;;;3.55;78.92
76864;BME280;65834;52.364;9.754;2024-01-15T08:14:25;98986.81;;;3.50;79.41
76864;BME280;65834;52.364;9.754;2024-01-15T08:16:55;98995.72;;;3.42;79.72
76864;BME280;65834;52.364;9.754;2024-01-15T08:19:24;98994.91;;;3.42;80.49
76864;BME280;65834;52.364;9.754;2024-01-15T08:21:54;98995.19;;;3.47;80.37
76864;BME280;65834;52.364;9.754;2024-01-15T08:24:26;98987.06;;;3.40;79.73
76864;BME280;65834;52.364;9.754;2024-01-15T08:26:56;98992.94;;;3.36;80.30
76864;BME280;65834;52.364;9.754;2024-01-15T08:29:25;98956.53;;;3.20;80.76
76864;BME280;65834;52.364;9.754;2024-01-15T08:31:59;98995.94;;;3.41;79.82
76864;BME280;65834;52.364;9.754;2024-01-15T08:34:29;98988.38;;;3.44;79.43
76864;BME280;65834;52.364;9.754;2024-01-15T08:36:58;98980.91;;;3.40;79.77
76864;BME280;65834;52.364;9.754;2024-01-15T08:39:31;98983.56;;;3.40;79.18
76864;BME280;65834;52.364;9.754;2024-01-15T08:42:03;98991.59;;;3.40;78.39
76864;BME280;65834;52.364;9.754;2024-01-15T08:44:32;98996.09;;;3.39;78.83
76864;BME280;65834;52.364;9.754;2024-01-15T08:47:02;98995.00;;;3.48;78.41
76864;BME280;65834;52.364;9.754;2024-01-15T08:49:32;99000.34;;;3.48;78.42
76864;BME280;65834;52.364;9.754;2024-01-15T08:52:03;98990.50;;;3.49;78.30
76864;BME280;65834;52.364;9.754;2024-01-15T08:54:35;98987.91;;;3.55;78.32
76864;BME280;65834;52.364;9.754;2024-01-15T08:57:04;98991.78;;;3.53;78.21
76864;BME280;65834;52.364;9.754;2024-01-15T08:59:34;98992.06;;;3.58;78.49
76864;BME280;65834;52.364;9.754;2024-01-15T09:02:05;98983.88;;;3.59;78.36
76864;BME280;65834;52.364;9.754;2024-01-15T09:04:35;98993.84;;;3.65;78.31
76864;BME280;65834;52.364;9.754;2024-01-15T09:07:04;98993.28;;;3.70;77.82
76864;BME280;65834;52.364;9.754;2024-01-15T09:09:36;98996.16;;;3.68;76.67
76864;BME280;65834;52.364;9.754;2024-01-15T09:12:07;98987.47;;;3.66;76.69
76864;BME280;65834;52.364;9.754;2024-01-15T09:14:36;98984.16;;;3.64;76.24
76864;BME280;65834;52.364;9.754;2024-01-15T09:17:06;98985.34;;;3.62;76.14
76864;BME280;65834;52.364;9.754;2024-01-15T09:19:36;98997.88;;;3.61;76.30
76864;BME280;65834;52.364;9.754;2024-01-15T09:22:06;98986.66;;;3.66;76.57
76864;BME280;65834;52.364;9.754;2024-01-15T09:24:40;98991.81;;;3.67;76.33
76864;BME280;65834;52.364;9.754;2024-01-15T09:27:09;98988.38;;;3.73;75.73
76864;BME280;65834;52.364;9.754;2024-01-15T09:29:39;98998.81;;;3.68;76.08
76864;BME280;65834;52.364;9.754;2024-01-15T09:32:10;99003.78;;;3.71;75.70
76864;BME280;65834;52.364;9.754;2024-01-15T09:34:40;99006.63;;;3.70;76.71
76864;BME280;65834;52.364;9.754;2024-01-15T09:37:10;99016.59;;;3.76;76.82
76864;BME280;65834;52.364;9.754;2024-01-15T09:40:00;99006.09;;;3.74;75.90
76864;BME280;65834;52.364;9.754;2024-01-15T09:42:30;99007.38;;;3.78;75.24
76864;BME280;65834;52.364;9.754;2024-01-15T09:45:00;99007.47;;;3.85;75.38
76864;BME280;65834;52.364;9.754;2024-01-15T09:47:30;99010.34;;;3.83;75.78
76864;BME280;65834;52.364;9.754;2024-01-15T09:50:00;99016.63;;;3.91;75.42
76864;BME280;65834;52.364;9.754;2024-01-15T09:52:30;99017.53;;;3.98;74.79
76864;BME280;65834;52.364;9.754;2024-01-15T09:55:03;99017.53;;;3.98;75.49
76864;BME280;65834;52.364;9.754;2024-01-15T09:57:33;99015.94;;;4.03;75.35
76864;BME280;65834;52.364;9.754;2024-01-15T10:00:05;99011.25;;;4.05;74.92
76864;BME280;65834;52.364;9.754;2024-01-15T10:02:38;99015.56;;;4.06;74.27
76864;BME280;65834;52.364;9.754;2024-01-15T10:05:07;99014.13;;;4.04;74.55
76864;BME280;65834;52.364;9.754;2024-01-15T10:07:37;99027.03;;;4.00;74.63
76864;BME280;65834;52.364;9.754;2024-01-15T10:10:10;99024.72;;;3.97;74.59
76864;BME280;65834;52.364;9.754;2024-01-15T10:12:40;99016.78;;;3.89;74.68
76864;BME280;65834;52.364;9.754;2024-01-15T10:15:11;99024.19;;;3.87;75.10
76864;BME280;65834;52.364;9.754;2024-01-15T10:17:41;99028.75;;;3.78;75.43
76864;BME280;65834;52.364;9.754;2024-01-15T10:20:11;99026.75;;;3.80;76.46
76864;BME280;65834;52.364;9.754;2024-01-15T10:22:41;99027.41;;;3.82;76.07
76864;BME280;65834;52.364;9.754;2024-01-15T10:25:15;99027.75;;;3.79;76.13
76864;BME280;65834;52.364;9.754;2024-01-15T10:27:59;99031.53;;;3.85;76.69
76864;BME280;65834;52.364;9.754;2024-01-15T10:30:29;99035.50;;;3.89;77.35
76864;BME280;65834;52.364;9.754;2024-01-15T10:33:00;99024.34;;;3.86;76.31
76864;BME280;65834;52.364;9.754;2024-01-15T10:35:31;99020.31;;;3.90;76.71
76864;BME280;65834;52.364;9.754;2024-01-15T10:38:01;99026.13;;;3.93;76.34
76864;BME280;65834;52.364;9.754;2024-01-15T10:40:34;99019.19;;;3.99;76.48
76864;BME280;65834;52.364;9.754;2024-01-15T10:43:04;99011.63;;;4.02;76.27
76864;BME280;65834;52.364;9.754;2024-01-15T10:45:34;99020.13;;;4.06;75.19
76864;BME280;65834;52.364;9.754;2024-01-15T10:48:04;99010.06;;;4.08;75.04
76864;BME280;65834;52.364;9.754;2024-01-15T10:50:34;99004.72;;;4.08;74.64
76864;BME280;65834;52.364;9.754;2024-01-15T10:53:04;99012.72;;;4.08;74.24
76864;BME280;65834;52.364;9.754;2024-01-15T10:55:37;99015.22;;;4.09;74.42
76864;BME280;65834;52.364;9.754;2024-01-15T10:58:07;99013.66;;;4.15;73.29
76864;BME280;65834;52.364;9.754;2024-01-15T11:00:37;99012.53;;;4.09;73.15
76864;BME280;65834;52.364;9.754;2024-01-15T11:03:07;98986.81;;;4.08;73.17
76864;BME280;65834;52.364;9.754;2024-01-15T11:05:38;99016.16;;;4.02;71.89
76864;BME280;65834;52.364;9.754;2024-01-15T11:08:08;99007.66;;;3.98;72.41
76864;BME280;65834;52.364;9.754;2024-01-15T11:10:43;98998.63;;;3.99;72.78
76864;BME280;65834;52.364;9.754;2024-01-15T11:13:14;99008.59;;;4.05;72.05
76864;BME280;65834;52.364;9.754;2024-01-15T11:15:57;98999.53;;;4.06;72.64
76864;BME280;65834;52.364;9.754;2024-01-15T11:18:28;98997.16;;;4.11;72.58
76864;BME280;65834;52.364;9.754;2024-01-15T11:21:20;98999.72;;;4.19;72.52
76864;BME280;65834;52.364;9.754;2024-01-15T11:23:53;99000.38;;;4.21;72.20
76864;BME280;65834;52.364;9.754;2024-01-15T11:26:35;98992.59;;;4.26;72.68
76864;BME280;65834;52.364;9.754;2024-01-15T11:29:06;99000.25;;;4.29;72.03
76864;BME280;65834;52.364;9.754;2024-01-15T11:31:57;98988.78;;;4.35;71.94
76864;BME280;65834;52.364;9.754;2024-01-15T11:34:50;98991.22;;;4.30;71.16
76864;BME280;65834;52.364;9.754;2024-01-15T11:37:21;98987.72;;;4.30;71.45
76864;BME280;65834;52.364;9.754;2024-01-15T11:39:54;98996.56;;;4.30;71.48
76864;BME280;65834;52.364;9.754;2024-01-15T11:42:27;98990.63;;;4.35;71.57
76864;BME280;65834;52.364;9.754;2024-01-15T11:44:56;98978.72;;;4.37;70.81
76864;BME280;65834;52.364;9.754;2024-01-15T11:47:50;98989.56;;;4.29;70.48
76864;BME280;65834;52.364;9.754;2024-01-15T11:50:29;98991.00;;;4.32;70.50
76864;BME280;65834;52.364;9.754;2024-01-15T11:53:01;98984.44;;;4.34;70.60
76864;BME280;65834;52.364;9.754;2024-01-15T11:55:34;98986.03;;;4.29;70.44
76864;BME280;65834;52.364;9.754;2024-01-15T11:58:09;98994.91;;;4.29;70.79
76864;BME280;65834;52.364;9.754;2024-01-15T12:00:39;98984.00;;;4.31;71.21
76864;BME280;65834;52.364;9.754;2024-01-15T12:03:10;98974.31;;;4.30;72.00
76864;BME280;65834;52.364;9.754;2024-01-15T12:05:40;98985.22;;;4.28;71.25
76864;BME280;65834;52.364;9.754;2024-01-15T12:08:11;98980.94;;;4.34;71.10
76864;BME280;65834;52.364;9.754;2024-01-15T12:10:41;98984.44;;;4.34;70.85
76864;BME280;65834;52.364;9.754;2024-01-15T12:13:14;98980.38;;;4.38;71.04
76864;BME280;65834;52.364;9.754;2024-01-15T12:15:45;98981.03;;;4.41;70.93
76864;BME280;65834;52.364;9.754;2024-01-15T12:18:17;98981.03;;;4.41;70.40
76864;BME280;65834;52.364;9.754;2024-01-15T12:20:47;98981.03;;;4.41;70.05
76864;BME280;65834;52.364;9.754;2024-01-15T12:23:17;98977.19;;;4.28;70.85
76864;BME280;65834;52.364;9.754;2024-01-15T12:25:47;98978.25;;;4.34;69.96
76864;BME280;65834;52.364;9.754;2024-01-15T12:28:19;98986.56;;;4.39;70.14
76864;BME280;65834;52.364;9.754;2024-01-15T12:30:49;98981.69;;;4.43;69.91
76864;BME280;65834;52.364;9.754;2024-01-15T12:33:18;98990.34;;;4.45;69.13
76864;BME280;65834;52.364;9.754;2024-01-15T12:35:52;98988.66;;;4.44;68.73
76864;BME280;65834;52.364;9.754;2024-01-15T12:38:22;98985.00;;;4.45;68.80
76864;BME280;65834;52.364;9.754;2024-01-15T12:40:52;98987.47;;;4.46;69.42
76864;BME280;65834;52.364;9.754;2024-01-15T12:43:24;98994.47;;;4.47;68.49
76864;BME280;65834;52.364;9.754;2024-01-15T12:45:54;98985.63;;;4.47;69.03
76864;BME280;65834;52.364;9.754;2024-01-15T12:48:23;98987.09;;;4.49;68.38
76864;BME280;65834;52.364;9.754;2024-01-15T12:50:53;98992.44;;;4.49;69.22
76864;BME280;65834;52.364;9.754;2024-01-15T12:53:23;99000.28;;;4.51;68.92
76864;BME280;65834;52.364;9.754;2024-01-15T12:55:52;98994.78;;;4.52;69.11
76864;BME280;65834;52.364;9.754;2024-01-15T12:58:24;98995.94;;;4.50;69.45
76864;BME280;65834;52.364;9.754;2024-01-15T13:00:54;98987.16;;;4.56;68.95
76864;BME280;65834;52.364;9.754;2024-01-15T13:03:24;98996.03;;;4.56;68.33
76864;BME280;65834;52.364;9.754;2024-01-15T13:05:54;99001.75;;;4.53;68.95
76864;BME280;65834;52.364;9.754;2024-01-15T13:08:23;98992.66;;;4.48;68.82
76864;BME280;65834;52.364;9.754;2024-01-15T13:10:55;98992.44;;;4.49;69.24
76864;BME280;65834;52.364;9.754;2024-01-15T13:13:27;98994.94;;;4.51;67.73
76864;BME280;65834;52.364;9.754;2024-01-15T13:15:57;99000.78;;;4.40;68.58
76864;BME280;65834;52.364;9.754;2024-01-15T13:18:26;98993.16;;;4.36;69.07
76864;BME280;65834;52.364;9.754;2024-01-15T13:20:57;98993.16;;;4.36;69.94
76864;BME280;65834;52.364;9.754;2024-01-15T13:23:29;99000.34;;;4.36;70.36
76864;BME280;65834;52.364;9.754;2024-01-15T13:25:58;98992.31;;;4.36;69.48
76864;BME280;65834;52.364;9.754;2024-01-15T13:28:32;98999.03;;;4.32;69.82
76864;BME280;65834;52.364;9.754;2024-01-15T13:31:01;99002.34;;;4.34;69.61